sensor_id;sensor_type;location;lat;lon;timestamp;temperature;humidity
3356;DHT22;1691;52.486;13.374;2023-05-10T00:00:26;12.80;64.70
3356;DHT22;1691;52.486;13.374;2023-05-10T00:02:53;12.80;65.10
3356;DHT22;1691;52.486;13.374;2023-05-10T00:05:20;12.70;65.30
3356;DHT22;1691;52.486;13.374;2023-05-10T00:07:46;12.70;65.30
3356;DHT22;1691;52.486;13.374;2023-05-10T00:10:13;12.70;65.50
3356;DHT22;1691;52.486;13.374;2023-05-10T00:12:41;12.70;65.70
3356;DHT22;1691;52.486;13.374;2023-05-10T00:15:09;12.70;65.70
3356;DHT22;1691;52.486;13.374;2023-05-10T00:17:37;12.70;65.90
3356;DHT22;1691;52.486;13.374;2023-05-10T00:20:04;12.70;65.90
3356;DHT22;1691;52.486;13.374;2023-05-10T00:22:32;12.60;66.10
3356;DHT22;1691;52.486;13.374;2023-05-10T00:24:59;12.60;66.20
3356;DHT22;1691;52.486;13.374;2023-05-10T00:27:26;12.60;66.20
3356;DHT22;1691;52.486;13.374;2023-05-10T00:29:53;12.50;66.20
3356;DHT22;1691;52.486;13.374;2023-05-10T00:32:20;12.50;66.40
3356;DHT22;1691;52.486;13.374;2023-05-10T00:34:47;12.50;66.60
3356;DHT22;1691;52.486;13.374;2023-05-10T00:37:14;12.50;66.60
3356;DHT22;1691;52.486;13.374;2023-05-10T00:39:41;12.40;66.80
3356;DHT22;1691;52.486;13.374;2023-05-10T00:42:08;12.40;67.00
3356;DHT22;1691;52.486;13.374;2023-05-10T00:44:35;12.40;67.00
3356;DHT22;1691;52.486;13.374;2023-05-10T00:47:02;12.30;67.40
3356;DHT22;1691;52.486;13.374;2023-05-10T00:49:29;12.40;67.20
3356;DHT22;1691;52.486;13.374;2023-05-10T00:51:56;12.30;67.40
3356;DHT22;1691;52.486;13.374;2023-05-10T00:54:23;12.30;67.40
3356;DHT22;1691;52.486;13.374;2023-05-10T00:56:51;12.30;67.50
3356;DHT22;1691;52.486;13.374;2023-05-10T00:59:18;12.30;67.50
3356;DHT22;1691;52.486;13.374;2023-05-10T01:01:46;12.20;67.70
3356;DHT22;1691;52.486;13.374;2023-05-10T01:04:14;12.20;67.70
3356;DHT22;1691;52.486;13.374;2023-05-10T01:06:42;12.20;67.90
3356;DHT22;1691;52.486;13.374;2023-05-10T01:09:10;12.20;68.10
3356;DHT22;1691;52.486;13.374;2023-05-10T01:11:38;12.10;68.30
3356;DHT22;1691;52.486;13.374;2023-05-10T01:14:06;12.10;68.50
3356;DHT22;1691;52.486;13.374;2023-05-10T01:16:37;12.10;68.70
3356;DHT22;1691;52.486;13.374;2023-05-10T01:19:22;12.00;68.70
3356;DHT22;1691;52.486;13.374;2023-05-10T01:21:53;12.00;68.80
3356;DHT22;1691;52.486;13.374;2023-05-10T01:27:47;11.90;69.00
3356;DHT22;1691;52.486;13.374;2023-05-10T01:36:16;11.80;69.80
3356;DHT22;1691;52.486;13.374;2023-05-10T01:39:15;11.70;70.00
3356;DHT22;1691;52.486;13.374;2023-05-10T01:42:06;11.70;70.30
3356;DHT22;1691;52.486;13.374;2023-05-10T01:45:05;11.70;70.50
3356;DHT22;1691;52.486;13.374;2023-05-10T01:47:42;11.60;70.50
3356;DHT22;1691;52.486;13.374;2023-05-10T01:50:16;11.60;70.90
3356;DHT22;1691;52.486;13.374;2023-05-10T01:52:51;11.60;70.90
3356;DHT22;1691;52.486;13.374;2023-05-10T01:55:24;11.50;71.10
3356;DHT22;1691;52.486;13.374;2023-05-10T01:58:03;11.50;71.30
3356;DHT22;1691;52.486;13.374;2023-05-10T02:00:34;11.40;71.50
3356;DHT22;1691;52.486;13.374;2023-05-10T02:03:05;11.40;71.80
3356;DHT22;1691;52.486;13.374;2023-05-10T02:05:33;11.40;72.00
3356;DHT22;1691;52.486;13.374;2023-05-10T02:08:03;11.30;72.20
3356;DHT22;1691;52.486;13.374;2023-05-10T02:10:34;11.30;72.20
3356;DHT22;1691;52.486;13.374;2023-05-10T02:13:02;11.30;72.40
3356;DHT22;1691;52.486;13.374;2023-05-10T02:15:30;11.30;72.60
3356;DHT22;1691;52.486;13.374;2023-05-10T02:18:00;11.20;72.80
3356;DHT22;1691;52.486;13.374;2023-05-10T02:20:30;11.20;72.90
3356;DHT22;1691;52.486;13.374;2023-05-10T02:22:58;11.20;73.10
3356;DHT22;1691;52.486;13.374;2023-05-10T02:25:26;11.20;73.10
3356;DHT22;1691;52.486;13.374;2023-05-10T02:27:55;11.10;73.30
3356;DHT22;1691;52.486;13.374;2023-05-10T02:30:23;11.10;73.30
3356;DHT22;1691;52.486;13.374;2023-05-10T02:32:51;11.10;73.50
3356;DHT22;1691;52.486;13.374;2023-05-10T02:35:19;11.10;73.50
3356;DHT22;1691;52.486;13.374;2023-05-10T02:37:47;11.00;73.70
3356;DHT22;1691;52.486;13.374;2023-05-10T02:40:16;11.00;73.70
3356;DHT22;1691;52.486;13.374;2023-05-10T02:42:45;11.00;74.10
3356;DHT22;1691;52.486;13.374;2023-05-10T02:45:18;10.90;74.20
3356;DHT22;1691;52.486;13.374;2023-05-10T02:47:48;10.90;74.40
3356;DHT22;1691;52.486;13.374;2023-05-10T02:50:15;10.90;74.40
3356;DHT22;1691;52.486;13.374;2023-05-10T02:52:47;10.80;74.60
3356;DHT22;1691;52.486;13.374;2023-05-10T02:55:16;10.80;74.60
3356;DHT22;1691;52.486;13.374;2023-05-10T02:58:00;10.80;74.80
3356;DHT22;1691;52.486;13.374;2023-05-10T03:00:28;10.70;75.00
3356;DHT22;1691;52.486;13.374;2023-05-10T03:02:55;10.70;75.20
3356;DHT22;1691;52.486;13.374;2023-05-10T03:05:22;10.70;75.40
3356;DHT22;1691;52.486;13.374;2023-05-10T03:07:50;10.70;75.40
3356;DHT22;1691;52.486;13.374;2023-05-10T03:10:18;10.70;75.60
3356;DHT22;1691;52.486;13.374;2023-05-10T03:15:59;10.70;75.60
3356;DHT22;1691;52.486;13.374;2023-05-10T03:18:44;10.70;75.60
3356;DHT22;1691;52.486;13.374;2023-05-10T03:21:18;10.60;75.60
3356;DHT22;1691;52.486;13.374;2023-05-10T03:23:51;10.60;75.70
3356;DHT22;1691;52.486;13.374;2023-05-10T03:26:39;10.60;75.70
3356;DHT22;1691;52.486;13.374;2023-05-10T03:29:07;10.60;75.70
3356;DHT22;1691;52.486;13.374;2023-05-10T03:31:35;10.60;75.70
3356;DHT22;1691;52.486;13.374;2023-05-10T03:34:02;10.60;75.90
3356;DHT22;1691;52.486;13.374;2023-05-10T03:36:29;10.60;75.90
3356;DHT22;1691;52.486;13.374;2023-05-10T03:38:56;10.60;76.10
3356;DHT22;1691;52.486;13.374;2023-05-10T03:41:23;10.60;76.10
3356;DHT22;1691;52.486;13.374;2023-05-10T03:43:51;10.60;76.10
3356;DHT22;1691;52.486;13.374;2023-05-10T03:46:18;10.60;76.10
3356;DHT22;1691;52.486;13.374;2023-05-10T03:48:45;10.60;76.10
3356;DHT22;1691;52.486;13.374;2023-05-10T03:51:12;10.60;76.10
3356;DHT22;1691;52.486;13.374;2023-05-10T03:53:39;10.60;76.10
3356;DHT22;1691;52.486;13.374;2023-05-10T03:56:06;10.60;76.30
3356;DHT22;1691;52.486;13.374;2023-05-10T03:58:33;10.70;76.30
3356;DHT22;1691;52.486;13.374;2023-05-10T04:01:00;10.70;76.10
3356;DHT22;1691;52.486;13.374;2023-05-10T04:03:27;10.70;76.10
3356;DHT22;1691;52.486;13.374;2023-05-10T04:06:00;10.70;76.10
3356;DHT22;1691;52.486;13.374;2023-05-10T04:08:28;10.70;75.90
3356;DHT22;1691;52.486;13.374;2023-05-10T04:11:08;10.80;75.90
3356;DHT22;1691;52.486;13.374;2023-05-10T04:13:36;10.90;75.70
3356;DHT22;1691;52.486;13.374;2023-05-10T04:16:04;11.10;75.70
3356;DHT22;1691;52.486;13.374;2023-05-10T04:18:31;11.50;75.40
3356;DHT22;1691;52.486;13.374;2023-05-10T04:20:58;11.70;74.40
3356;DHT22;1691;52.486;13.374;2023-05-10T04:23:26;11.80;73.70
3356;DHT22;1691;52.486;13.374;2023-05-10T04:25:59;12.00;73.50
3356;DHT22;1691;52.486;13.374;2023-05-10T04:28:27;12.30;73.10
3356;DHT22;1691;52.486;13.374;2023-05-10T04:31:03;12.90;72.20
3356;DHT22;1691;52.486;13.374;2023-05-10T04:33:31;13.50;70.10
3356;DHT22;1691;52.486;13.374;2023-05-10T04:35:58;14.10;68.30
3356;DHT22;1691;52.486;13.374;2023-05-10T04:38:25;14.50;66.60
3356;DHT22;1691;52.486;13.374;2023-05-10T04:40:53;14.90;65.10
3356;DHT22;1691;52.486;13.374;2023-05-10T04:43:20;15.30;63.60
3356;DHT22;1691;52.486;13.374;2023-05-10T04:45:47;15.70;62.10
3356;DHT22;1691;52.486;13.374;2023-05-10T04:48:14;16.00;60.60
3356;DHT22;1691;52.486;13.374;2023-05-10T04:50:41;16.30;59.60
3356;DHT22;1691;52.486;13.374;2023-05-10T04:53:07;16.50;58.20
3356;DHT22;1691;52.486;13.374;2023-05-10T04:55:35;16.80;57.60
3356;DHT22;1691;52.486;13.374;2023-05-10T04:58:02;17.20;56.90
3356;DHT22;1691;52.486;13.374;2023-05-10T05:00:29;17.50;55.30
3356;DHT22;1691;52.486;13.374;2023-05-10T05:02:56;17.80;54.40
3356;DHT22;1691;52.486;13.374;2023-05-10T05:05:24;18.00;53.80
3356;DHT22;1691;52.486;13.374;2023-05-10T05:07:50;18.30;52.90
3356;DHT22;1691;52.486;13.374;2023-05-10T05:10:18;18.60;52.10
3356;DHT22;1691;52.486;13.374;2023-05-10T05:12:45;18.80;51.20
3356;DHT22;1691;52.486;13.374;2023-05-10T05:15:12;19.00;50.10
3356;DHT22;1691;52.486;13.374;2023-05-10T05:17:39;19.10;49.50
3356;DHT22;1691;52.486;13.374;2023-05-10T05:20:06;19.20;49.20
3356;DHT22;1691;52.486;13.374;2023-05-10T05:22:36;19.40;48.90
3356;DHT22;1691;52.486;13.374;2023-05-10T05:25:04;19.60;47.90
3356;DHT22;1691;52.486;13.374;2023-05-10T05:27:32;19.80;47.60
3356;DHT22;1691;52.486;13.374;2023-05-10T05:29:59;20.00;46.90
3356;DHT22;1691;52.486;13.374;2023-05-10T05:32:26;20.10;46.50
3356;DHT22;1691;52.486;13.374;2023-05-10T05:34:53;20.20;45.60
3356;DHT22;1691;52.486;13.374;2023-05-10T05:37:20;20.20;45.00
3356;DHT22;1691;52.486;13.374;2023-05-10T05:39:48;20.30;45.00
3356;DHT22;1691;52.486;13.374;2023-05-10T05:42:15;20.40;44.90
3356;DHT22;1691;52.486;13.374;2023-05-10T05:44:44;20.50;44.10
3356;DHT22;1691;52.486;13.374;2023-05-10T05:47:11;20.50;43.60
3356;DHT22;1691;52.486;13.374;2023-05-10T05:49:38;20.50;43.80
3356;DHT22;1691;52.486;13.374;2023-05-10T05:52:06;20.50;43.50
3356;DHT22;1691;52.486;13.374;2023-05-10T05:54:33;20.50;42.90
3356;DHT22;1691;52.486;13.374;2023-05-10T05:57:00;20.50;43.20
3356;DHT22;1691;52.486;13.374;2023-05-10T05:59:28;20.70;43.00
3356;DHT22;1691;52.486;13.374;2023-05-10T06:01:55;20.80;42.50
3356;DHT22;1691;52.486;13.374;2023-05-10T06:04:22;21.00;42.20
3356;DHT22;1691;52.486;13.374;2023-05-10T06:06:49;21.10;41.90
3356;DHT22;1691;52.486;13.374;2023-05-10T06:09:16;21.20;41.90
3356;DHT22;1691;52.486;13.374;2023-05-10T06:11:43;21.50;41.80
3356;DHT22;1691;52.486;13.374;2023-05-10T06:14:10;21.70;40.90
3356;DHT22;1691;52.486;13.374;2023-05-10T06:16:37;21.80;40.70
3356;DHT22;1691;52.486;13.374;2023-05-10T06:19:04;22.00;40.70
3356;DHT22;1691;52.486;13.374;2023-05-10T06:21:31;22.40;40.20
3356;DHT22;1691;52.486;13.374;2023-05-10T06:23:58;22.70;39.30
3356;DHT22;1691;52.486;13.374;2023-05-10T06:26:25;22.80;39.20
3356;DHT22;1691;52.486;13.374;2023-05-10T06:28:52;23.00;38.70
3356;DHT22;1691;52.486;13.374;2023-05-10T06:31:19;23.10;38.50
3356;DHT22;1691;52.486;13.374;2023-05-10T06:33:45;23.20;38.10
3356;DHT22;1691;52.486;13.374;2023-05-10T06:36:12;23.40;38.10
3356;DHT22;1691;52.486;13.374;2023-05-10T06:38:39;23.70;37.80
3356;DHT22;1691;52.486;13.374;2023-05-10T06:41:06;24.00;37.30
3356;DHT22;1691;52.486;13.374;2023-05-10T06:43:33;24.10;36.40
3356;DHT22;1691;52.486;13.374;2023-05-10T06:46:01;24.00;36.10
3356;DHT22;1691;52.486;13.374;2023-05-10T06:48:28;23.90;36.20
3356;DHT22;1691;52.486;13.374;2023-05-10T06:50:55;24.00;36.70
3356;DHT22;1691;52.486;13.374;2023-05-10T06:53:22;24.30;36.20
3356;DHT22;1691;52.486;13.374;2023-05-10T06:55:49;24.70;35.80
3356;DHT22;1691;52.486;13.374;2023-05-10T06:58:16;24.90;35.20
3356;DHT22;1691;52.486;13.374;2023-05-10T07:00:43;25.10;34.90
3356;DHT22;1691;52.486;13.374;2023-05-10T07:03:12;25.40;34.50
3356;DHT22;1691;52.486;13.374;2023-05-10T07:05:39;25.70;34.10
3356;DHT22;1691;52.486;13.374;2023-05-10T07:08:06;26.00;33.60
3356;DHT22;1691;52.486;13.374;2023-05-10T07:10:33;26.20;33.00
3356;DHT22;1691;52.486;13.374;2023-05-10T07:13:00;26.30;32.70
3356;DHT22;1691;52.486;13.374;2023-05-10T07:15:28;26.20;32.20
3356;DHT22;1691;52.486;13.374;2023-05-10T07:17:55;25.80;32.20
3356;DHT22;1691;52.486;13.374;2023-05-10T07:20:22;25.60;32.50
3356;DHT22;1691;52.486;13.374;2023-05-10T07:22:49;25.50;32.90
3356;DHT22;1691;52.486;13.374;2023-05-10T07:25:16;25.80;33.00
3356;DHT22;1691;52.486;13.374;2023-05-10T07:27:43;26.00;32.40
3356;DHT22;1691;52.486;13.374;2023-05-10T07:30:10;26.00;32.20
3356;DHT22;1691;52.486;13.374;2023-05-10T07:32:38;26.00;31.80
3356;DHT22;1691;52.486;13.374;2023-05-10T07:35:06;26.10;31.90
3356;DHT22;1691;52.486;13.374;2023-05-10T07:37:33;26.20;31.90
3356;DHT22;1691;52.486;13.374;2023-05-10T07:40:00;26.50;31.50
3356;DHT22;1691;52.486;13.374;2023-05-10T07:42:27;26.50;31.20
3356;DHT22;1691;52.486;13.374;2023-05-10T07:44:54;26.60;31.50
3356;DHT22;1691;52.486;13.374;2023-05-10T07:47:21;26.80;31.20
3356;DHT22;1691;52.486;13.374;2023-05-10T07:49:48;27.00;30.70
3356;DHT22;1691;52.486;13.374;2023-05-10T07:52:15;27.20;30.50
3356;DHT22;1691;52.486;13.374;2023-05-10T07:54:42;27.50;30.40
3356;DHT22;1691;52.486;13.374;2023-05-10T07:57:09;27.90;29.60
3356;DHT22;1691;52.486;13.374;2023-05-10T07:59:36;28.10;29.30
3356;DHT22;1691;52.486;13.374;2023-05-10T08:02:03;28.30;29.30
3356;DHT22;1691;52.486;13.374;2023-05-10T08:04:30;28.60;29.10
3356;DHT22;1691;52.486;13.374;2023-05-10T08:06:57;29.00;29.00
3356;DHT22;1691;52.486;13.374;2023-05-10T08:09:24;29.40;28.60
3356;DHT22;1691;52.486;13.374;2023-05-10T08:11:51;29.70;28.40
3356;DHT22;1691;52.486;13.374;2023-05-10T08:14:18;29.90;28.00
3356;DHT22;1691;52.486;13.374;2023-05-10T08:16:45;30.20;27.90
3356;DHT22;1691;52.486;13.374;2023-05-10T08:19:11;30.70;27.60
3356;DHT22;1691;52.486;13.374;2023-05-10T08:21:38;31.00;27.10
3356;DHT22;1691;52.486;13.374;2023-05-10T08:24:07;31.20;26.70
3356;DHT22;1691;52.486;13.374;2023-05-10T08:26:34;31.50;26.70
3356;DHT22;1691;52.486;13.374;2023-05-10T08:29:01;31.70;26.30
3356;DHT22;1691;52.486;13.374;2023-05-10T08:31:28;31.50;26.00
3356;DHT22;1691;52.486;13.374;2023-05-10T08:33:55;31.00;26.00
3356;DHT22;1691;52.486;13.374;2023-05-10T08:36:22;30.40;26.50
3356;DHT22;1691;52.486;13.374;2023-05-10T08:38:50;30.30;26.60
3356;DHT22;1691;52.486;13.374;2023-05-10T08:41:20;30.20;26.50
3356;DHT22;1691;52.486;13.374;2023-05-10T08:43:50;30.00;26.60
3356;DHT22;1691;52.486;13.374;2023-05-10T08:46:18;29.90;26.80
3356;DHT22;1691;52.486;13.374;2023-05-10T08:48:48;30.00;26.90
3356;DHT22;1691;52.486;13.374;2023-05-10T08:51:22;30.20;27.00
3356;DHT22;1691;52.486;13.374;2023-05-10T08:53:52;30.40;26.90
3356;DHT22;1691;52.486;13.374;2023-05-10T08:56:19;30.80;26.90
3356;DHT22;1691;52.486;13.374;2023-05-10T08:58:47;30.90;26.60
3356;DHT22;1691;52.486;13.374;2023-05-10T09:01:16;30.80;26.50
3356;DHT22;1691;52.486;13.374;2023-05-10T09:03:43;30.70;26.60
3356;DHT22;1691;52.486;13.374;2023-05-10T09:06:13;30.70;26.70
3356;DHT22;1691;52.486;13.374;2023-05-10T09:08:41;30.90;26.70
3356;DHT22;1691;52.486;13.374;2023-05-10T09:11:09;31.00;26.50
3356;DHT22;1691;52.486;13.374;2023-05-10T09:13:38;31.30;26.30
3356;DHT22;1691;52.486;13.374;2023-05-10T09:16:05;31.40;25.90
3356;DHT22;1691;52.486;13.374;2023-05-10T09:18:46;31.10;25.90
3356;DHT22;1691;52.486;13.374;2023-05-10T09:21:13;30.70;26.00
3356;DHT22;1691;52.486;13.374;2023-05-10T09:23:45;30.50;26.30
3356;DHT22;1691;52.486;13.374;2023-05-10T09:26:14;30.40;26.30
3356;DHT22;1691;52.486;13.374;2023-05-10T09:28:58;30.30;26.60
3356;DHT22;1691;52.486;13.374;2023-05-10T09:31:44;30.40;26.60
3356;DHT22;1691;52.486;13.374;2023-05-10T09:34:31;30.30;26.60
3356;DHT22;1691;52.486;13.374;2023-05-10T09:37:00;30.50;26.60
3356;DHT22;1691;52.486;13.374;2023-05-10T09:39:33;30.60;26.50
3356;DHT22;1691;52.486;13.374;2023-05-10T09:42:05;30.80;26.50
3356;DHT22;1691;52.486;13.374;2023-05-10T09:44:34;30.90;26.50
3356;DHT22;1691;52.486;13.374;2023-05-10T09:47:02;31.10;26.20
3356;DHT22;1691;52.486;13.374;2023-05-10T09:49:29;31.10;26.20
3356;DHT22;1691;52.486;13.374;2023-05-10T09:52:04;31.20;26.20
3356;DHT22;1691;52.486;13.374;2023-05-10T09:54:34;31.20;26.20
3356;DHT22;1691;52.486;13.374;2023-05-10T09:57:02;31.30;26.20
3356;DHT22;1691;52.486;13.374;2023-05-10T09:59:29;31.40;26.00
3356;DHT22;1691;52.486;13.374;2023-05-10T10:01:58;31.40;26.00
3356;DHT22;1691;52.486;13.374;2023-05-10T10:04:26;31.40;26.10
3356;DHT22;1691;52.486;13.374;2023-05-10T10:07:04;31.30;25.90
3356;DHT22;1691;52.486;13.374;2023-05-10T10:09:32;31.10;26.00
3356;DHT22;1691;52.486;13.374;2023-05-10T10:12:03;30.90;26.30
3356;DHT22;1691;52.486;13.374;2023-05-10T10:14:31;30.90;26.10
3356;DHT22;1691;52.486;13.374;2023-05-10T10:17:00;30.70;26.10
3356;DHT22;1691;52.486;13.374;2023-05-10T10:19:32;30.70;26.20
3356;DHT22;1691;52.486;13.374;2023-05-10T10:22:00;31.00;26.10
3356;DHT22;1691;52.486;13.374;2023-05-10T10:24:27;31.00;26.20
3356;DHT22;1691;52.486;13.374;2023-05-10T10:26:57;31.30;26.00
3356;DHT22;1691;52.486;13.374;2023-05-10T10:32:30;31.40;25.80
3356;DHT22;1691;52.486;13.374;2023-05-10T10:35:06;30.90;26.00
3356;DHT22;1691;52.486;13.374;2023-05-10T10:37:44;30.40;26.40
3356;DHT22;1691;52.486;13.374;2023-05-10T10:40:31;30.20;26.80
3356;DHT22;1691;52.486;13.374;2023-05-10T10:43:26;30.10;26.90
3356;DHT22;1691;52.486;13.374;2023-05-10T10:46:16;29.60;27.20
3356;DHT22;1691;52.486;13.374;2023-05-10T10:48:48;29.30;27.40
3356;DHT22;1691;52.486;13.374;2023-05-10T10:51:18;29.20;27.60
3356;DHT22;1691;52.486;13.374;2023-05-10T10:53:47;29.40;27.70
3356;DHT22;1691;52.486;13.374;2023-05-10T10:56:14;29.20;27.60
3356;DHT22;1691;52.486;13.374;2023-05-10T10:58:49;28.80;27.90
3356;DHT22;1691;52.486;13.374;2023-05-10T11:01:18;28.30;28.20
3356;DHT22;1691;52.486;13.374;2023-05-10T11:06:34;27.10;29.10
3356;DHT22;1691;52.486;13.374;2023-05-10T11:09:10;26.60;29.70
3356;DHT22;1691;52.486;13.374;2023-05-10T11:11:54;26.00;30.50
3356;DHT22;1691;52.486;13.374;2023-05-10T11:14:22;25.60;31.20
3356;DHT22;1691;52.486;13.374;2023-05-10T11:16:49;25.20;31.60
3356;DHT22;1691;52.486;13.374;2023-05-10T11:19:17;24.90;32.40
3356;DHT22;1691;52.486;13.374;2023-05-10T11:24:31;24.30;33.60
3356;DHT22;1691;52.486;13.374;2023-05-10T11:27:00;24.10;34.40
3356;DHT22;1691;52.486;13.374;2023-05-10T11:29:27;23.90;35.00
3356;DHT22;1691;52.486;13.374;2023-05-10T11:31:58;23.70;35.50
3356;DHT22;1691;52.486;13.374;2023-05-10T11:34:30;23.50;35.50
3356;DHT22;1691;52.486;13.374;2023-05-10T11:37:00;23.20;35.60
3356;DHT22;1691;52.486;13.374;2023-05-10T11:39:29;23.00;36.10
3356;DHT22;1691;52.486;13.374;2023-05-10T11:41:57;22.90;36.10
3356;DHT22;1691;52.486;13.374;2023-05-10T11:44:32;22.80;36.40
3356;DHT22;1691;52.486;13.374;2023-05-10T11:47:00;22.70;36.40
3356;DHT22;1691;52.486;13.374;2023-05-10T11:49:28;22.70;36.50
3356;DHT22;1691;52.486;13.374;2023-05-10T11:52:06;22.70;36.40
3356;DHT22;1691;52.486;13.374;2023-05-10T11:54:34;22.70;36.20
3356;DHT22;1691;52.486;13.374;2023-05-10T11:57:04;22.70;36.50
3356;DHT22;1691;52.486;13.374;2023-05-10T11:59:30;22.70;36.90
3356;DHT22;1691;52.486;13.374;2023-05-10T12:01:58;22.60;36.90
3356;DHT22;1691;52.486;13.374;2023-05-10T12:04:25;22.50;37.00
3356;DHT22;1691;52.486;13.374;2023-05-10T12:06:53;22.50;37.30
3356;DHT22;1691;52.486;13.374;2023-05-10T12:09:20;22.40;37.60
3356;DHT22;1691;52.486;13.374;2023-05-10T12:12:05;22.30;37.90
3356;DHT22;1691;52.486;13.374;2023-05-10T12:14:36;22.30;37.80
3356;DHT22;1691;52.486;13.374;2023-05-10T12:17:03;22.40;37.90
3356;DHT22;1691;52.486;13.374;2023-05-10T12:19:37;22.40;38.20
3356;DHT22;1691;52.486;13.374;2023-05-10T12:22:05;22.40;38.20
3356;DHT22;1691;52.486;13.374;2023-05-10T12:24:37;22.40;38.40
3356;DHT22;1691;52.486;13.374;2023-05-10T12:27:05;22.40;38.50
3356;DHT22;1691;52.486;13.374;2023-05-10T12:29:34;22.40;38.70
3356;DHT22;1691;52.486;13.374;2023-05-10T12:32:02;22.50;38.70
3356;DHT22;1691;52.486;13.374;2023-05-10T12:34:34;22.50;39.00
3356;DHT22;1691;52.486;13.374;2023-05-10T12:37:03;22.50;39.20
3356;DHT22;1691;52.486;13.374;2023-05-10T12:39:43;22.50;39.00
3356;DHT22;1691;52.486;13.374;2023-05-10T12:42:11;22.50;39.20
3356;DHT22;1691;52.486;13.374;2023-05-10T12:44:38;22.50;39.50
3356;DHT22;1691;52.486;13.374;2023-05-10T12:47:06;22.50;39.80
3356;DHT22;1691;52.486;13.374;2023-05-10T12:49:33;22.50;39.80
3356;DHT22;1691;52.486;13.374;2023-05-10T12:52:00;22.50;39.90
3356;DHT22;1691;52.486;13.374;2023-05-10T12:54:27;22.60;39.90
3356;DHT22;1691;52.486;13.374;2023-05-10T12:56:54;22.60;39.80
3356;DHT22;1691;52.486;13.374;2023-05-10T12:59:21;22.60;39.60
3356;DHT22;1691;52.486;13.374;2023-05-10T13:01:49;22.60;39.30
3356;DHT22;1691;52.486;13.374;2023-05-10T13:04:16;22.60;39.50
3356;DHT22;1691;52.486;13.374;2023-05-10T13:06:43;22.60;39.30
3356;DHT22;1691;52.486;13.374;2023-05-10T13:09:10;22.60;39.20
3356;DHT22;1691;52.486;13.374;2023-05-10T13:11:37;22.70;39.30
3356;DHT22;1691;52.486;13.374;2023-05-10T13:14:04;22.70;39.50
3356;DHT22;1691;52.486;13.374;2023-05-10T13:16:31;22.70;39.50
3356;DHT22;1691;52.486;13.374;2023-05-10T13:18:58;22.80;39.20
3356;DHT22;1691;52.486;13.374;2023-05-10T13:21:25;22.80;39.20
3356;DHT22;1691;52.486;13.374;2023-05-10T13:23:53;22.90;39.20
3356;DHT22;1691;52.486;13.374;2023-05-10T13:26:20;22.90;39.20
3356;DHT22;1691;52.486;13.374;2023-05-10T13:28:47;23.00;39.20
3356;DHT22;1691;52.486;13.374;2023-05-10T13:31:15;23.10;39.00
3356;DHT22;1691;52.486;13.374;2023-05-10T13:33:42;23.20;38.70
3356;DHT22;1691;52.486;13.374;2023-05-10T13:36:09;23.20;38.10
3356;DHT22;1691;52.486;13.374;2023-05-10T13:38:36;23.20;37.80
3356;DHT22;1691;52.486;13.374;2023-05-10T13:41:04;23.30;37.50
3356;DHT22;1691;52.486;13.374;2023-05-10T13:43:31;23.30;37.30
3356;DHT22;1691;52.486;13.374;2023-05-10T13:45:58;23.30;37.30
3356;DHT22;1691;52.486;13.374;2023-05-10T13:48:24;23.30;37.30
3356;DHT22;1691;52.486;13.374;2023-05-10T13:50:51;23.30;37.30
3356;DHT22;1691;52.486;13.374;2023-05-10T13:53:19;23.20;37.60
3356;DHT22;1691;52.486;13.374;2023-05-10T13:55:46;23.10;37.60
3356;DHT22;1691;52.486;13.374;2023-05-10T13:58:13;23.10;37.60
3356;DHT22;1691;52.486;13.374;2023-05-10T14:00:40;23.00;37.60
3356;DHT22;1691;52.486;13.374;2023-05-10T14:03:07;23.00;37.30
3356;DHT22;1691;52.486;13.374;2023-05-10T14:05:37;23.00;36.90
3356;DHT22;1691;52.486;13.374;2023-05-10T14:08:05;23.00;36.70
3356;DHT22;1691;52.486;13.374;2023-05-10T14:10:31;22.90;36.50
3356;DHT22;1691;52.486;13.374;2023-05-10T14:12:58;22.90;36.50
3356;DHT22;1691;52.486;13.374;2023-05-10T14:15:25;22.90;36.50
3356;DHT22;1691;52.486;13.374;2023-05-10T14:17:52;23.00;36.70
3356;DHT22;1691;52.486;13.374;2023-05-10T14:20:19;23.00;36.50
3356;DHT22;1691;52.486;13.374;2023-05-10T14:22:46;23.20;36.20
3356;DHT22;1691;52.486;13.374;2023-05-10T14:25:14;23.20;35.80
3356;DHT22;1691;52.486;13.374;2023-05-10T14:27:42;23.20;35.60
3356;DHT22;1691;52.486;13.374;2023-05-10T14:30:09;23.20;35.60
3356;DHT22;1691;52.486;13.374;2023-05-10T14:32:36;23.20;35.60
3356;DHT22;1691;52.486;13.374;2023-05-10T14:35:04;23.10;35.60
3356;DHT22;1691;52.486;13.374;2023-05-10T14:37:32;23.10;35.60
3356;DHT22;1691;52.486;13.374;2023-05-10T14:39:59;23.10;35.60
3356;DHT22;1691;52.486;13.374;2023-05-10T14:42:26;23.20;35.60
3356;DHT22;1691;52.486;13.374;2023-05-10T14:44:54;23.20;35.50
3356;DHT22;1691;52.486;13.374;2023-05-10T14:47:21;23.20;35.50
3356;DHT22;1691;52.486;13.374;2023-05-10T14:49:48;23.30;35.50
3356;DHT22;1691;52.486;13.374;2023-05-10T14:52:15;23.40;35.50
3356;DHT22;1691;52.486;13.374;2023-05-10T14:54:43;23.30;35.80
3356;DHT22;1691;52.486;13.374;2023-05-10T14:57:09;23.30;35.80
3356;DHT22;1691;52.486;13.374;2023-05-10T14:59:36;23.20;35.90
3356;DHT22;1691;52.486;13.374;2023-05-10T15:02:04;23.10;36.20
3356;DHT22;1691;52.486;13.374;2023-05-10T15:04:31;23.10;36.20
3356;DHT22;1691;52.486;13.374;2023-05-10T15:06:59;23.00;36.10
3356;DHT22;1691;52.486;13.374;2023-05-10T15:09:26;23.00;36.20
3356;DHT22;1691;52.486;13.374;2023-05-10T15:11:55;23.00;36.40
3356;DHT22;1691;52.486;13.374;2023-05-10T15:14:22;23.00;36.40
3356;DHT22;1691;52.486;13.374;2023-05-10T15:16:49;22.90;36.50
3356;DHT22;1691;52.486;13.374;2023-05-10T15:19:16;22.90;36.50
3356;DHT22;1691;52.486;13.374;2023-05-10T15:21:43;22.80;36.70
3356;DHT22;1691;52.486;13.374;2023-05-10T15:24:11;22.70;36.70
3356;DHT22;1691;52.486;13.374;2023-05-10T15:26:37;22.70;36.90
3356;DHT22;1691;52.486;13.374;2023-05-10T15:29:04;22.70;36.90
3356;DHT22;1691;52.486;13.374;2023-05-10T15:31:31;22.70;37.00
3356;DHT22;1691;52.486;13.374;2023-05-10T15:34:01;22.70;37.20
3356;DHT22;1691;52.486;13.374;2023-05-10T15:36:28;22.70;37.20
3356;DHT22;1691;52.486;13.374;2023-05-10T15:38:55;22.70;37.30
3356;DHT22;1691;52.486;13.374;2023-05-10T15:41:22;22.70;37.50
3356;DHT22;1691;52.486;13.374;2023-05-10T15:43:50;22.80;37.60
3356;DHT22;1691;52.486;13.374;2023-05-10T15:46:16;22.90;37.60
3356;DHT22;1691;52.486;13.374;2023-05-10T15:48:43;22.90;37.50
3356;DHT22;1691;52.486;13.374;2023-05-10T15:51:10;22.90;37.80
3356;DHT22;1691;52.486;13.374;2023-05-10T15:53:37;22.90;37.60
3356;DHT22;1691;52.486;13.374;2023-05-10T15:56:18;22.90;37.80
3356;DHT22;1691;52.486;13.374;2023-05-10T15:58:45;22.90;37.80
3356;DHT22;1691;52.486;13.374;2023-05-10T16:01:12;22.80;37.90
3356;DHT22;1691;52.486;13.374;2023-05-10T16:03:39;22.70;38.10
3356;DHT22;1691;52.486;13.374;2023-05-10T16:06:06;22.70;38.20
3356;DHT22;1691;52.486;13.374;2023-05-10T16:08:33;22.50;38.50
3356;DHT22;1691;52.486;13.374;2023-05-10T16:11:01;22.50;38.90
3356;DHT22;1691;52.486;13.374;2023-05-10T16:13:28;22.40;39.00
3356;DHT22;1691;52.486;13.374;2023-05-10T16:15:55;22.30;39.30